Time;durP1;ratioP1;P1;durP2;ratioP2;P2;SDS_P1;SDS_P2;PMS_P1;PMS_P2;Temp;Humidity;BMP_temperature;BMP_pressure;BME280_temperature;BME280_humidity;BME280_pressure;Samples;Min_cycle;Max_cycle;Signal;HPM_P1;HPM_P2
2023/02/10 00:00:43;;;;;;;10.5;6.1;;;;;;;;;;;;;
2023/02/10 00:03:13;;;;;;;11.3;7.1;;;;;;;;;;;;;
2023/02/10 00:05:35;;;;;;;12.2;7.2;;;;;;;;;;;;;
2023/02/10 00:08:00;;;;;;;13;7.1;;;;;;;;;;;;;
2023/02/10 00:10:31;;;;;;;14.2;6.7;;;;;;;;;;;;;
2023/02/10 00:13:01;;;;;;;13.7;6.2;;;;;;;;;;;;;
2023/02/10 00:15:32;;;;;;;15.1;7.3;;;;;;;;;;;;;
2023/02/10 00:18:00;;;;;;;13.9;6.1;;;;;;;;;;;;;
2023/02/10 00:20:25;;;;;;;12.3;6.1;;;;;;;;;;;;;
2023/02/10 00:22:50;;;;;;;14.7;7.5;;;;;;;;;;;;;
2023/02/10 00:25:18;;;;;;;13.9;8.6;;;;;;;;;;;;;
2023/02/10 00:27:46;;;;;;;15.8;8.1;;;;;;;;;;;;;
2023/02/10 00:30:25;;;;;;;17.9;8.4;;;;;;;;;;;;;
2023/02/10 00:32:53;;;;;;;13.9;7.1;;;;;;;;;;;;;
2023/02/10 00:35:18;;;;;;;12.7;6.7;;;;;;;;;;;;;
2023/02/10 00:37:44;;;;;;;8.9;5.3;;;;;;;;;;;;;
2023/02/10 00:40:10;;;;;;;8.1;4.9;;;;;;;;;;;;;
2023/02/10 00:42:35;;;;;;;9.5;5.1;;;;;;;;;;;;;
2023/02/10 00:45:01;;;;;;;9.8;5.2;;;;;;;;;;;;;
2023/02/10 00:47:27;;;;;;;8.5;5;;;;;;;;;;;;;
2023/02/10 00:50:06;;;;;;;8.8;4.8;;;;;;;;;;;;;
2023/02/10 00:52:31;;;;;;;7.1;4.8;;;;;;;;;;;;;
2023/02/10 00:54:56;;;;;;;9.4;5.1;;;;;;;;;;;;;
2023/02/10 00:57:21;;;;;;;11.1;5.4;;;;;;;;;;;;;
2023/02/10 00:59:47;;;;;;;10;4.8;;;;;;;;;;;;;
2023/02/10 01:02:12;;;;;;;10.6;5.2;;;;;;;;;;;;;
2023/02/10 01:04:40;;;;;;;10.5;5.6;;;;;;;;;;;;;
2023/02/10 01:07:05;;;;;;;10.6;4.8;;;;;;;;;;;;;
2023/02/10 01:09:32;;;;;;;9;4.9;;;;;;;;;;;;;
2023/02/10 01:11:58;;;;;;;11.7;5.4;;;;;;;;;;;;;
2023/02/10 01:14:23;;;;;;;11.2;5.5;;;;;;;;;;;;;
2023/02/10 01:16:50;;;;;;;9.9;4.8;;;;;;;;;;;;;
2023/02/10 01:19:15;;;;;;;6.9;3.8;;;;;;;;;;;;;
2023/02/10 01:21:41;;;;;;;10.1;4.2;;;;;;;;;;;;;
2023/02/10 01:24:06;;;;;;;8.9;5;;;;;;;;;;;;;
2023/02/10 01:26:31;;;;;;;9.1;4.7;;;;;;;;;;;;;
2023/02/10 01:28:56;;;;;;;6.7;4.2;;;;;;;;;;;;;
2023/02/10 01:31:21;;;;;;;6.6;3.8;;;;;;;;;;;;;
2023/02/10 01:33:46;;;;;;;5.6;3.4;;;;;;;;;;;;;
2023/02/10 01:36:14;;;;;;;7.2;4.3;;;;;;;;;;;;;
2023/02/10 01:38:39;;;;;;;5.9;3.7;;;;;;;;;;;;;
2023/02/10 01:41:05;;;;;;;7.8;3.7;;;;;;;;;;;;;
2023/02/10 01:43:30;;;;;;;6.1;3.9;;;;;;;;;;;;;
2023/02/10 01:45:55;;;;;;;6.2;3.9;;;;;;;;;;;;;
2023/02/10 01:48:20;;;;;;;7.4;3.8;;;;;;;;;;;;;
2023/02/10 01:50:45;;;;;;;5.5;3.6;;;;;;;;;;;;;
2023/02/10 01:53:10;;;;;;;5.6;3.6;;;;;;;;;;;;;
2023/02/10 01:55:38;;;;;;;6.5;3.5;;;;;;;;;;;;;
2023/02/10 01:58:08;;;;;;;6.3;3.6;;;;;;;;;;;;;
2023/02/10 02:00:33;;;;;;;6.1;3.4;;;;;;;;;;;;;
2023/02/10 02:02:58;;;;;;;7.5;3.7;;;;;;;;;;;;;
2023/02/10 02:05:23;;;;;;;6.6;3.7;;;;;;;;;;;;;
2023/02/10 02:07:49;;;;;;;5.4;3.5;;;;;;;;;;;;;
2023/02/10 02:10:14;;;;;;;8;3.7;;;;;;;;;;;;;
2023/02/10 02:12:39;;;;;;;6.6;4;;;;;;;;;;;;;
2023/02/10 02:15:04;;;;;;;8.2;3.7;;;;;;;;;;;;;
2023/02/10 02:17:29;;;;;;;5.8;3.7;;;;;;;;;;;;;
2023/02/10 02:20:40;;;;;;;9;4.3;;;;;;;;;;;;;
2023/02/10 02:22:21;;;;;;;6.3;3.7;;;;;;;;;;;;;
2023/02/10 02:26:13;;;;;;;5.9;3.5;;;;;;;;;;;;;
2023/02/10 02:28:38;;;;;;;5.7;3.3;;;;;;;;;;;;;
2023/02/10 02:31:04;;;;;;;5.1;3.2;;;;;;;;;;;;;
2023/02/10 02:33:30;;;;;;;6.4;3.5;;;;;;;;;;;;;
2023/02/10 02:35:56;;;;;;;3.9;3;;;;;;;;;;;;;
2023/02/10 02:38:21;;;;;;;3.6;2.9;;;;;;;;;;;;;
2023/02/10 02:40:46;;;;;;;3.7;3.1;;;;;;;;;;;;;
2023/02/10 02:43:11;;;;;;;6.8;3.5;;;;;;;;;;;;;
2023/02/10 02:45:36;;;;;;;5.3;3.5;;;;;;;;;;;;;
2023/02/10 02:48:01;;;;;;;4.9;3.2;;;;;;;;;;;;;
2023/02/10 02:50:26;;;;;;;5.1;3.3;;;;;;;;;;;;;
2023/02/10 02:52:53;;;;;;;4.3;3;;;;;;;;;;;;;
2023/02/10 02:55:18;;;;;;;5.1;3.2;;;;;;;;;;;;;
2023/02/10 02:57:46;;;;;;;6.4;3.3;;;;;;;;;;;;;
2023/02/10 03:00:14;;;;;;;4.8;3.2;;;;;;;;;;;;;
2023/02/10 03:02:45;;;;;;;5.6;3.2;;;;;;;;;;;;;
2023/02/10 03:05:09;;;;;;;6.4;3.3;;;;;;;;;;;;;
2023/02/10 03:07:34;;;;;;;6.3;3.9;;;;;;;;;;;;;
2023/02/10 03:09:59;;;;;;;4.2;2.9;;;;;;;;;;;;;
2023/02/10 03:12:25;;;;;;;4.1;2.8;;;;;;;;;;;;;
2023/02/10 03:14:50;;;;;;;8.3;4.3;;;;;;;;;;;;;
2023/02/10 03:17:17;;;;;;;5.4;3.3;;;;;;;;;;;;;
2023/02/10 03:19:42;;;;;;;5.2;3.1;;;;;;;;;;;;;
2023/02/10 03:22:07;;;;;;;5.4;3.2;;;;;;;;;;;;;
2023/02/10 03:24:32;;;;;;;4.6;2.9;;;;;;;;;;;;;
2023/02/10 03:26:57;;;;;;;5.8;3.5;;;;;;;;;;;;;
2023/02/10 03:29:23;;;;;;;4.5;3;;;;;;;;;;;;;
2023/02/10 03:31:49;;;;;;;5.9;3.1;;;;;;;;;;;;;
2023/02/10 03:34:14;;;;;;;6.9;3.6;;;;;;;;;;;;;
2023/02/10 03:36:40;;;;;;;4.1;2.7;;;;;;;;;;;;;
2023/02/10 03:39:05;;;;;;;6.1;3.2;;;;;;;;;;;;;
2023/02/10 03:41:32;;;;;;;4.8;3.3;;;;;;;;;;;;;
2023/02/10 03:43:57;;;;;;;4.1;3;;;;;;;;;;;;;
2023/02/10 03:46:22;;;;;;;3.7;2.8;;;;;;;;;;;;;
2023/02/10 03:48:49;;;;;;;5.3;2.9;;;;;;;;;;;;;
2023/02/10 03:51:14;;;;;;;5.5;3.4;;;;;;;;;;;;;
2023/02/10 03:53:39;;;;;;;5;3.2;;;;;;;;;;;;;
2023/02/10 03:56:04;;;;;;;6.2;3.3;;;;;;;;;;;;;
2023/02/10 03:58:30;;;;;;;4.3;3.2;;;;;;;;;;;;;
2023/02/10 04:02:33;;;;;;;6.3;3.8;;;;;;;-4.44;77.50879;954.8555;;;;
2023/02/10 04:05:03;;;;;;;5;3.4;;;;;;;-4.47;77.63379;954.986;;;;
2023/02/10 04:07:28;;;;;;;4.1;3.2;;;;;;;-4.52;77.76855;954.9864;;;;
2023/02/10 04:09:59;;;;;;;4.9;3.3;;;;;;;-4.4;77.27441;954.9736;;;;
2023/02/10 04:12:57;;;;;;;8.7;3.7;;;;;;;-4.5;77.35352;954.9977;;;;
2023/02/10 04:15:32;;;;;;;5.6;3.4;;;;;;;-4.76;78.1543;955.0681;;;;
2023/02/10 04:18:02;;;;;;;5;3.3;;;;;;;-4.89;78.76758;955.0778;;;;
2023/02/10 04:20:29;;;;;;;7.6;3.7;;;;;;;-5;79.4082;955.1181;;;;
2023/02/10 04:22:55;;;;;;;5.4;3.3;;;;;;;-5.07;80.0127;955.0773;;;;
2023/02/10 04:25:27;;;;;;;4.3;3.1;;;;;;;-5.05;79.93652;955.0705;;;;
2023/02/10 04:27:52;;;;;;;7.4;3.1;;;;;;;-5.14;80.62402;955.0112;;;;
2023/02/10 04:30:19;;;;;;;5;3.1;;;;;;;-4.97;80.39258;954.9423;;;;
2023/02/10 04:32:44;;;;;;;7.3;3.9;;;;;;;-4.94;80.16699;954.9333;;;;
2023/02/10 04:35:19;;;;;;;14.2;6.8;;;;;;;-4.98;80.42383;954.9967;;;;
2023/02/10 04:37:49;;;;;;;14.5;6.4;;;;;;;-4.9;80.25098;954.9666;;;;
2023/02/10 04:51:12;;;;;;;4.8;3.4;;;;;;;-4.92;79.15918;954.9347;;;;
2023/02/10 04:53:33;;;;;;;7.3;4.1;;;;;;;-4.96;78.78711;954.8293;;;;
2023/02/10 04:56:03;;;;;;;9;6.1;;;;;;;-5.04;78.96094;954.7888;;;;
2023/02/10 04:58:28;;;;;;;7.4;4.1;;;;;;;-5.07;79.31738;954.8356;;;;
2023/02/10 05:00:55;;;;;;;4.5;3.1;;;;;;;-4.99;78.98047;954.827;;;;
2023/02/10 05:03:29;;;;;;;5;3;;;;;;;-4.88;78.58203;954.823;;;;
2023/02/10 05:05:54;;;;;;;5.8;3.7;;;;;;;-4.87;78.2207;954.813;;;;
2023/02/10 05:08:25;;;;;;;3.8;3;;;;;;;-4.81;77.57031;954.8426;;;;
2023/02/10 05:10:53;;;;;;;4.6;2.8;;;;;;;-4.77;77.09375;954.8311;;;;
2023/02/10 05:13:18;;;;;;;4.3;2.7;;;;;;;-4.94;77.50488;954.9094;;;;
2023/02/10 05:15:44;;;;;;;5.9;3.2;;;;;;;-4.92;77.91309;954.8435;;;;
2023/02/10 05:18:09;;;;;;;4.7;2.9;;;;;;;-4.75;76.9209;954.9687;;;;
2023/02/10 05:20:40;;;;;;;4.6;2.7;;;;;;;-4.64;76.76465;954.9833;;;;
2023/02/10 05:23:09;;;;;;;5.2;3.4;;;;;;;-4.61;77.53223;954.9891;;;;
2023/02/10 05:25:37;;;;;;;5.4;3.2;;;;;;;-4.45;77.0332;955.0599;;;;
2023/02/10 05:31:32;;;;;;;6.3;4.4;;;;;;;-4.58;76.53418;955.1358;;;;
2023/02/10 05:34:01;;;;;;;8.3;4;;;;;;;-4.79;77.07813;955.2706;;;;
2023/02/10 05:36:31;;;;;;;6.2;3.4;;;;;;;-5;77.71289;955.2108;;;;
2023/02/10 05:47:22;;;;;;;9.1;4.4;;;;;;;-5.24;79.0332;955.216;;;;
2023/02/10 05:49:51;;;;;;;6.5;4.1;;;;;;;-5.17;79.13281;955.2894;;;;
2023/02/10 05:52:16;;;;;;;9;3.9;;;;;;;-4.89;78.16211;955.4191;;;;
2023/02/10 05:54:45;;;;;;;8.8;5.8;;;;;;;-4.81;77.20898;955.55;;;;
2023/02/10 05:57:14;;;;;;;7.9;4.5;;;;;;;-5.05;77.66016;955.5406;;;;
2023/02/10 05:59:39;;;;;;;7.2;4.2;;;;;;;-5.07;77.96387;955.6044;;;;
2023/02/10 06:02:09;;;;;;;8;4.9;;;;;;;-5.15;77.98145;955.6827;;;;
2023/02/10 06:04:38;;;;;;;5.9;4;;;;;;;-5.25;78.62305;955.7088;;;;
2023/02/10 06:07:03;;;;;;;5.5;3.7;;;;;;;-5.17;78.15234;955.7527;;;;
2023/02/10 06:09:30;;;;;;;91.6;41.1;;;;;;;-5.23;78.29785;955.7553;;;;
2023/02/10 06:12:14;;;;;;;85.5;65.4;;;;;;;-5.27;78.75098;955.7276;;;;
2023/02/10 06:14:42;;;;;;;19.5;11.6;;;;;;;-5.41;78.98926;955.7042;;;;
2023/02/10 06:17:11;;;;;;;7.1;3.9;;;;;;;-5.46;79.37305;955.8106;;;;
2023/02/10 06:19:39;;;;;;;110;60.5;;;;;;;-5.47;79.43945;955.7609;;;;
2023/02/10 06:22:04;;;;;;;7.1;4.4;;;;;;;-5.4;79.58496;955.7728;;;;
2023/02/10 06:24:31;;;;;;;11.4;5.3;;;;;;;-5.34;79.65039;955.7881;;;;
2023/02/10 06:26:57;;;;;;;10.3;5.3;;;;;;;-5.21;79.15918;955.7366;;;;
2023/02/10 06:32:50;;;;;;;14.1;7.8;;;;;;;-5.36;78.9209;955.8067;;;;
2023/02/10 06:35:16;;;;;;;10.3;7.4;;;;;;;-5.39;79.30078;955.8964;;;;
2023/02/10 06:37:48;;;;;;;10.5;6;;;;;;;-5.47;79.17578;955.8816;;;;
2023/02/10 06:40:21;;;;;;;8.2;4.8;;;;;;;-5.46;79.47266;955.9276;;;;
2023/02/10 06:42:48;;;;;;;8.1;4.7;;;;;;;-5.56;80.12598;955.8969;;;;
2023/02/10 06:45:16;;;;;;;178.6;77.7;;;;;;;-5.55;80.12793;955.9357;;;;
2023/02/10 06:47:44;;;;;;;310.6;154.2;;;;;;;-5.65;80.48242;956.0093;;;;
2023/02/10 06:50:09;;;;;;;10.1;6;;;;;;;-5.58;80.30762;956.0295;;;;
2023/02/10 06:52:39;;;;;;;15.6;7.1;;;;;;;-5.57;80.46484;956.0723;;;;
2023/02/10 06:55:07;;;;;;;15.5;8.6;;;;;;;-5.56;80.30176;956.1312;;;;
2023/02/10 06:57:32;;;;;;;13.6;8.7;;;;;;;-5.58;80.51758;956.12;;;;
2023/02/10 07:00:22;;;;;;;14.3;8.3;;;;;;;-5.56;80.69531;956.1463;;;;
2023/02/10 07:02:54;;;;;;;12.8;6.5;;;;;;;-5.49;80.01855;956.1067;;;;
2023/02/10 07:05:23;;;;;;;10.3;6.9;;;;;;;-5.39;80.99414;956.2281;;;;
2023/02/10 07:07:50;;;;;;;39.8;15.8;;;;;;;-5.33;80.20215;956.2589;;;;
2023/02/10 07:10:14;;;;;;;11.4;6.3;;;;;;;-5.28;80.06934;956.2193;;;;
2023/02/10 07:12:41;;;;;;;10.4;5.5;;;;;;;-4.9;79.09473;956.197;;;;
2023/02/10 07:15:06;;;;;;;7.3;4;;;;;;;-4.48;77.19141;956.2117;;;;
2023/02/10 07:17:43;;;;;;;188.5;145.3;;;;;;;-4.12;76.22168;956.2346;;;;
2023/02/10 07:20:08;;;;;;;35;22.6;;;;;;;-3.69;73.27539;956.2972;;;;
2023/02/10 07:22:33;;;;;;;9.9;6.2;;;;;;;-3.97;74.08496;956.2869;;;;
2023/02/10 07:27:56;;;;;;;29.7;16.1;;;;;;;-3.64;73.37109;956.305;;;;
2023/02/10 07:30:27;;;;;;;26;12.2;;;;;;;-3.52;72.26465;956.3538;;;;
2023/02/10 07:32:52;;;;;;;37.9;16.6;;;;;;;-3.46;72.34277;956.3272;;;;
2023/02/10 07:35:23;;;;;;;29;13.7;;;;;;;-3.33;70.95117;956.4069;;;;
2023/02/10 07:37:48;;;;;;;31.6;14.4;;;;;;;-2.74;70.75195;956.4105;;;;
2023/02/10 07:40:22;;;;;;;14.7;7.8;;;;;;;-2.42;67.32715;956.4226;;;;
2023/02/10 07:42:49;;;;;;;15.6;8.3;;;;;;;-2.04;66.87793;956.3817;;;;
2023/02/10 07:45:15;;;;;;;14.9;7.6;;;;;;;-2.2;65.31348;956.4716;;;;
2023/02/10 07:47:46;;;;;;;13.6;6.9;;;;;;;-2.28;66.69727;956.5253;;;;
2023/02/10 07:50:19;;;;;;;12.4;6;;;;;;;-2.2;65.73438;956.4832;;;;
2023/02/10 07:52:50;;;;;;;15.7;7.7;;;;;;;-1.78;64.28027;956.3543;;;;
2023/02/10 07:55:23;;;;;;;17.1;9.5;;;;;;;-1.49;63.91406;956.3737;;;;
2023/02/10 07:58:38;;;;;;;20;13.5;;;;;;;-1.44;61.53516;956.3914;;;;
2023/02/10 08:01:43;;;;;;;18.1;11.4;;;;;;;-1.21;61.36914;956.36;;;;
2023/02/10 08:04:08;;;;;;;6.5;3.5;;;;;;;-0.16;58.48145;956.3349;;;;
2023/02/10 08:06:36;;;;;;;3.4;2.2;;;;;;;0.7;54.71875;956.4088;;;;
2023/02/10 08:09:01;;;;;;;6.7;2.3;;;;;;;0.89;53.95117;956.4274;;;;
2023/02/10 08:11:27;;;;;;;3.8;1.9;;;;;;;1.06;51.39258;956.4442;;;;
2023/02/10 08:13:53;;;;;;;5;1.8;;;;;;;0.15;53.77734;956.4418;;;;
2023/02/10 08:16:18;;;;;;;9.4;2.9;;;;;;;-0.09;55.39648;956.498;;;;
2023/02/10 08:18:43;;;;;;;8.4;2.8;;;;;;;0.78;53.60156;956.4286;;;;
2023/02/10 08:21:13;;;;;;;6.3;2.9;;;;;;;1.43;51.78516;956.5622;;;;
2023/02/10 08:23:45;;;;;;;8.1;3.3;;;;;;;1.31;52.10449;956.5303;;;;
2023/02/10 08:26:15;;;;;;;6.3;3.2;;;;;;;1.75;50.24609;956.5039;;;;
2023/02/10 08:28:44;;;;;;;6.5;2.6;;;;;;;2.87;48.38281;956.476;;;;
2023/02/10 08:31:16;;;;;;;5.4;2.7;;;;;;;1.92;48.03906;956.3649;;;;
2023/02/10 08:33:45;;;;;;;8.9;6.1;;;;;;;1.6;49.94727;956.3619;;;;
2023/02/10 08:36:12;;;;;;;9.2;4.5;;;;;;;2.81;49.21582;956.3431;;;;
2023/02/10 08:38:37;;;;;;;5.5;3.6;;;;;;;3.79;46.20508;956.1914;;;;
2023/02/10 08:41:02;;;;;;;3.9;2.3;;;;;;;4.86;43.94434;956.1965;;;;
2023/02/10 08:43:29;;;;;;;6.8;4.4;;;;;;;4.02;44.40918;956.1721;;;;
2023/02/10 08:45:54;;;;;;;3.6;2.1;;;;;;;4.46;42.36133;956.2133;;;;
2023/02/10 08:48:27;;;;;;;14.9;7.4;;;;;;;6.42;40.51953;956.1331;;;;
2023/02/10 08:50:56;;;;;;;17.6;5.4;;;;;;;6.97;38.7373;956.123;;;;
2023/02/10 08:53:21;;;;;;;29;5.6;;;;;;;4.33;41.83008;956.2084;;;;
2023/02/10 08:55:47;;;;;;;7.9;3.4;;;;;;;2.44;46.10254;956.2255;;;;
2023/02/10 08:58:12;;;;;;;11.3;4.6;;;;;;;0.97;49.87305;956.257;;;;
2023/02/10 09:00:40;;;;;;;10.6;4;;;;;;;0.01;52.64648;956.2246;;;;
2023/02/10 09:03:05;;;;;;;4.5;2.6;;;;;;;-0.33;53.61621;956.2886;;;;
2023/02/10 09:05:33;;;;;;;7.1;3.5;;;;;;;-0.54;54.79199;956.288;;;;
2023/02/10 09:07:58;;;;;;;5.5;3.7;;;;;;;-0.63;55.73633;956.2985;;;;
2023/02/10 09:10:24;;;;;;;6.2;3.3;;;;;;;-0.59;54.96289;956.2745;;;;
2023/02/10 09:12:49;;;;;;;8;4.7;;;;;;;-0.41;54.38574;956.2818;;;;
2023/02/10 09:15:21;;;;;;;8.6;4.7;;;;;;;-0.62;54.9248;956.2034;;;;
2023/02/10 09:17:46;;;;;;;3.8;2.3;;;;;;;-0.68;53.42773;956.1792;;;;
2023/02/10 09:20:19;;;;;;;5.5;3.2;;;;;;;-0.86;54.16113;956.1631;;;;
2023/02/10 09:22:50;;;;;;;4.9;2.6;;;;;;;-0.8;55.11328;956.1814;;;;
2023/02/10 09:25:18;;;;;;;8.5;3.9;;;;;;;-0.63;55.04688;956.1652;;;;
2023/02/10 09:27:43;;;;;;;7.5;4.8;;;;;;;-0.53;54.25781;956.1694;;;;
2023/02/10 09:30:15;;;;;;;8.7;5.1;;;;;;;-0.37;54.46875;956.1486;;;;
2023/02/10 09:32:46;;;;;;;11.8;5.4;;;;;;;-0.25;53.79395;956.1437;;;;
2023/02/10 09:35:20;;;;;;;6.4;3.5;;;;;;;0.08;54.42676;956.17;;;;
2023/02/10 09:37:53;;;;;;;4.6;2.3;;;;;;;0.52;52.8877;956.1774;;;;
2023/02/10 09:40:17;;;;;;;9.9;5;;;;;;;1.04;52.02539;956.2687;;;;
2023/02/10 09:42:48;;;;;;;5.1;2.5;;;;;;;1.68;50.1582;956.2796;;;;
2023/02/10 09:45:16;;;;;;;2.8;2;;;;;;;2.2;47.83594;956.2341;;;;
2023/02/10 09:47:41;;;;;;;10.4;5.1;;;;;;;2.32;46.34863;956.2926;;;;
2023/02/10 09:50:06;;;;;;;9.9;5.4;;;;;;;3.35;44.66406;956.2288;;;;
2023/02/10 09:52:36;;;;;;;8;3.9;;;;;;;3.33;43.69629;956.2054;;;;
2023/02/10 09:55:06;;;;;;;13;5.8;;;;;;;3.42;45.14453;956.2291;;;;
2023/02/10 09:57:32;;;;;;;6.4;2.9;;;;;;;5.07;42.54492;956.2247;;;;
2023/02/10 09:59:58;;;;;;;9.2;3;;;;;;;6.1;39.70996;956.1644;;;;
2023/02/10 10:02:23;;;;;;;5.3;2.6;;;;;;;5.69;40.63184;956.1855;;;;
2023/02/10 10:04:48;;;;;;;6.1;2.5;;;;;;;5.07;40.50488;956.2498;;;;
2023/02/10 10:07:13;;;;;;;5.7;2.4;;;;;;;6.05;38.51855;956.0572;;;;
2023/02/10 10:09:38;;;;;;;5.2;2.7;;;;;;;5.6;38.18457;956.1423;;;;
2023/02/10 10:12:03;;;;;;;2.3;1.9;;;;;;;5.18;39.26367;956.0139;;;;
2023/02/10 10:14:29;;;;;;;4.9;2.4;;;;;;;5.6;37.75488;955.9903;;;;
2023/02/10 10:16:55;;;;;;;5.5;3.3;;;;;;;4.47;39.61426;956.0022;;;;
2023/02/10 10:19:23;;;;;;;5.3;2.6;;;;;;;4.21;40.07422;955.9816;;;;
2023/02/10 10:21:54;;;;;;;4.5;2.2;;;;;;;4.6;40.4375;955.9565;;;;
2023/02/10 10:24:21;;;;;;;7.1;2.6;;;;;;;4.13;40.25879;955.942;;;;
2023/02/10 10:26:47;;;;;;;2.7;1.8;;;;;;;3.64;40.62695;955.8275;;;;
2023/02/10 10:29:15;;;;;;;3.8;2.2;;;;;;;3.03;41.98242;955.8958;;;;
2023/02/10 10:31:45;;;;;;;4.2;1.8;;;;;;;3.81;42.21777;955.8303;;;;
2023/02/10 10:34:10;;;;;;;5.4;2.3;;;;;;;4.83;39.41113;955.7183;;;;
2023/02/10 10:36:35;;;;;;;2.4;1.8;;;;;;;4.25;39.62793;955.7798;;;;
2023/02/10 10:39:01;;;;;;;3.2;2.1;;;;;;;4.14;40.50684;955.6727;;;;
2023/02/10 10:41:32;;;;;;;3;2.1;;;;;;;4.66;39.68945;955.538;;;;
2023/02/10 10:43:57;;;;;;;2.8;2;;;;;;;4.64;39.96777;955.4875;;;;
2023/02/10 10:46:22;;;;;;;3.2;2.2;;;;;;;4.42;40.54395;955.4473;;;;
2023/02/10 10:48:54;;;;;;;4.3;2.3;;;;;;;4.03;39.95605;955.4419;;;;
2023/02/10 10:51:23;;;;;;;7.5;2.7;;;;;;;3.72;40.01758;955.33;;;;
2023/02/10 10:53:48;;;;;;;2.5;1.7;;;;;;;3.84;41.55664;955.2999;;;;
2023/02/10 10:56:13;;;;;;;2.5;1.8;;;;;;;3.89;41.49414;955.2203;;;;
2023/02/10 10:58:38;;;;;;;3.1;2.3;;;;;;;3.49;39.93945;955.2992;;;;
2023/02/10 11:01:05;;;;;;;4;2;;;;;;;3.47;40.57813;955.1163;;;;
2023/02/10 11:03:29;;;;;;;2.6;2.1;;;;;;;3.48;40.42188;955.1351;;;;
2023/02/10 11:05:58;;;;;;;4.2;2.3;;;;;;;3.92;40.37305;955.1227;;;;
2023/02/10 11:08:29;;;;;;;4.2;2.5;;;;;;;4.16;40.6543;955.0271;;;;
2023/02/10 11:10:55;;;;;;;3.3;2.1;;;;;;;4.38;39.89844;955.0535;;;;
2023/02/10 11:13:19;;;;;;;3.5;2.3;;;;;;;4.64;39.7998;954.9656;;;;
2023/02/10 11:15:50;;;;;;;3.5;2.1;;;;;;;4.96;38.97168;954.9445;;;;
2023/02/10 11:18:15;;;;;;;2.8;2.1;;;;;;;4.58;38.93848;954.9222;;;;
2023/02/10 11:20:43;;;;;;;4.1;2;;;;;;;5.29;39.30762;954.903;;;;
2023/02/10 11:23:13;;;;;;;3;2.2;;;;;;;5.49;39.61914;954.9003;;;;
2023/02/10 11:25:38;;;;;;;4.7;2;;;;;;;5.44;40.12207;954.8602;;;;
2023/02/10 11:28:03;;;;;;;2.7;2.1;;;;;;;6.2;38.54297;954.8354;;;;
2023/02/10 11:30:28;;;;;;;3;2.2;;;;;;;6.47;37.2666;954.8026;;;;
2023/02/10 11:32:55;;;;;;;2.4;2.2;;;;;;;7.09;35.13477;954.8226;;;;
2023/02/10 11:35:22;;;;;;;2.5;2.1;;;;;;;7.32;35.20996;954.8419;;;;
2023/02/10 11:37:53;;;;;;;2.7;2.2;;;;;;;8.34;34.81738;954.8422;;;;
2023/02/10 11:40:18;;;;;;;3.3;2.4;;;;;;;9.83;32.64551;954.6997;;;;
2023/02/10 11:42:43;;;;;;;2.8;2.2;;;;;;;11.52;29.73047;954.6677;;;;
2023/02/10 11:45:16;;;;;;;3.1;2.2;;;;;;;12.75;27.81738;954.6513;;;;
2023/02/10 11:47:41;;;;;;;4.5;2.2;;;;;;;14.05;26.66895;954.5307;;;;
2023/02/10 11:50:06;;;;;;;5.1;2.7;;;;;;;13.46;26.89746;954.5144;;;;
2023/02/10 11:52:33;;;;;;;4.7;2.7;;;;;;;12.26;28.74902;954.6591;;;;
2023/02/10 11:54:57;;;;;;;3.7;2.4;;;;;;;13.38;27.65137;954.6613;;;;
2023/02/10 11:59:47;;;;;;;4.8;2.2;;;;;;;14.51;25.89063;954.5725;;;;
2023/02/10 12:02:12;;;;;;;3.9;2.6;;;;;;;15.33;24.79688;954.5316;;;;
2023/02/10 12:04:41;;;;;;;5.7;3.2;;;;;;;15.84;24.7793;954.4816;;;;
2023/02/10 12:07:06;;;;;;;4.3;3.2;;;;;;;16.43;23.60938;954.3638;;;;
2023/02/10 12:09:32;;;;;;;6.6;3.4;;;;;;;16.72;23.80957;954.3832;;;;
2023/02/10 12:11:57;;;;;;;4.5;3;;;;;;;17.02;23.1543;954.2776;;;;
2023/02/10 12:14:22;;;;;;;4.1;2.8;;;;;;;16.6;23.7334;954.2701;;;;
2023/02/10 12:16:51;;;;;;;4.6;3.3;;;;;;;17.56;22.6377;954.1414;;;;
2023/02/10 12:19:20;;;;;;;5.1;3.1;;;;;;;17.88;22.75879;954.1834;;;;
2023/02/10 12:21:46;;;;;;;4.4;3.1;;;;;;;19.68;20.71777;954.1749;;;;
2023/02/10 12:24:10;;;;;;;4.8;3.2;;;;;;;18.7;21.0791;954.1553;;;;
2023/02/10 12:26:37;;;;;;;4;3;;;;;;;19.77;19.71875;954.0778;;;;
2023/02/10 12:29:00;;;;;;;4.4;3.1;;;;;;;21.5;19.51563;954.0375;;;;
2023/02/10 12:31:25;;;;;;;4;2.9;;;;;;;20.96;18.35742;953.9928;;;;
2023/02/10 12:33:50;;;;;;;4.5;3.1;;;;;;;20.94;18.42676;953.9565;;;;
2023/02/10 12:36:16;;;;;;;4.3;2.5;;;;;;;22.66;17.87598;953.9543;;;;
2023/02/10 12:38:41;;;;;;;4.5;2.8;;;;;;;23.35;16.86914;953.9647;;;;
2023/02/10 12:41:10;;;;;;;3;2.4;;;;;;;24.99;15.81055;953.9322;;;;
2023/02/10 12:43:36;;;;;;;3.2;2.8;;;;;;;24.19;15.95898;953.8992;;;;
2023/02/10 12:46:02;;;;;;;3.1;2.7;;;;;;;23.67;16.94043;953.9232;;;;
2023/02/10 12:48:27;;;;;;;3.6;2.8;;;;;;;21.63;18.22168;953.7919;;;;
2023/02/10 12:50:56;;;;;;;5;3;;;;;;;22.66;17.5127;953.8495;;;;
2023/02/10 12:53:21;;;;;;;4;3.2;;;;;;;23.41;17.25977;953.7817;;;;
2023/02/10 12:55:46;;;;;;;5.8;3.2;;;;;;;22.04;17.81641;953.7936;;;;
2023/02/10 12:58:11;;;;;;;4.1;3.1;;;;;;;22.74;17.69141;953.8094;;;;
2023/02/10 13:00:37;;;;;;;5;3.1;;;;;;;21.39;18.72656;953.8541;;;;
2023/02/10 13:03:04;;;;;;;4.2;3;;;;;;;21.89;18.57227;953.7761;;;;
2023/02/10 13:05:29;;;;;;;6.1;3.6;;;;;;;23.46;17.42578;953.804;;;;
2023/02/10 13:07:57;;;;;;;4.6;3.2;;;;;;;23.03;17.60938;953.7683;;;;
2023/02/10 13:10:23;;;;;;;4.9;3.7;;;;;;;21.46;18.90527;953.81;;;;
2023/02/10 13:12:54;;;;;;;4.9;3.6;;;;;;;20.08;20.32813;953.7908;;;;
2023/02/10 13:15:18;;;;;;;6;3.5;;;;;;;22.01;18.75293;953.7392;;;;
2023/02/10 13:17:48;;;;;;;4.9;3.7;;;;;;;22.95;17.65234;953.7277;;;;
2023/02/10 13:20:18;;;;;;;4.2;3.4;;;;;;;23.49;17.28613;953.741;;;;
2023/02/10 13:22:46;;;;;;;5.8;4;;;;;;;23.44;17.84863;953.7247;;;;
2023/02/10 13:25:15;;;;;;;4.7;3.6;;;;;;;22.91;18.15625;953.6372;;;;
2023/02/10 13:27:40;;;;;;;4.8;3.8;;;;;;;20.9;19.17285;953.627;;;;
2023/02/10 13:30:05;;;;;;;6.1;3.8;;;;;;;22.43;18.39453;953.584;;;;
2023/02/10 13:32:36;;;;;;;4.3;3.2;;;;;;;21.21;19.40918;953.6116;;;;
2023/02/10 13:35:00;;;;;;;6.4;3.5;;;;;;;21.15;18.64648;953.6558;;;;
2023/02/10 13:37:25;;;;;;;5;3.5;;;;;;;22.91;17.89844;953.6136;;;;
2023/02/10 13:39:50;;;;;;;3.9;3.1;;;;;;;22.43;17.96094;953.6019;;;;
2023/02/10 13:42:17;;;;;;;3.9;3.4;;;;;;;22.53;17.73047;953.5991;;;;
2023/02/10 13:44:43;;;;;;;4.6;3.4;;;;;;;23.65;17.19824;953.6152;;;;
2023/02/10 13:47:08;;;;;;;4.9;3.4;;;;;;;23.93;17.20898;953.5994;;;;
2023/02/10 13:49:35;;;;;;;7.1;3.7;;;;;;;23.83;17.32324;953.6597;;;;
2023/02/10 13:52:00;;;;;;;5.3;3.4;;;;;;;23.54;17.42969;953.6083;;;;
2023/02/10 13:54:26;;;;;;;4.9;3.7;;;;;;;25.12;16.51172;953.5776;;;;
2023/02/10 13:56:51;;;;;;;5.5;3.8;;;;;;;26;15.75195;953.5625;;;;
2023/02/10 13:59:16;;;;;;;5.2;3.7;;;;;;;23.41;17.49512;953.6516;;;;
2023/02/10 14:01:41;;;;;;;6.5;4;;;;;;;24.86;16.70313;953.5793;;;;
2023/02/10 14:04:06;;;;;;;5.3;3.9;;;;;;;24.89;16.49121;953.6303;;;;
2023/02/10 14:06:32;;;;;;;5.8;4.1;;;;;;;25.36;16.2959;953.5675;;;;
2023/02/10 14:08:57;;;;;;;5.6;3.9;;;;;;;24.65;16.70605;953.6269;;;;
2023/02/10 14:11:23;;;;;;;5.4;3.9;;;;;;;22.28;18.35352;953.5993;;;;
2023/02/10 14:13:50;;;;;;;5.4;4.1;;;;;;;19.55;21.00293;953.6275;;;;
2023/02/10 14:16:19;;;;;;;5.4;3.9;;;;;;;17.95;22.45996;953.6721;;;;
2023/02/10 14:18:47;;;;;;;6.4;4.3;;;;;;;18.27;22.55762;953.692;;;;
2023/02/10 14:21:17;;;;;;;6.2;4.2;;;;;;;17.12;24.11035;953.7006;;;;
2023/02/10 14:23:46;;;;;;;6.2;4.3;;;;;;;17.58;23.65918;953.6905;;;;
2023/02/10 14:26:10;;;;;;;6.7;4.4;;;;;;;17.31;23.65625;953.7138;;;;
2023/02/10 14:28:42;;;;;;;7.1;4.6;;;;;;;17.73;23.71387;953.6534;;;;
2023/02/10 14:31:07;;;;;;;5.5;4.2;;;;;;;19.08;22.36621;953.6005;;;;
2023/02/10 14:33:33;;;;;;;8.2;5;;;;;;;18.36;23.29395;953.6028;;;;
2023/02/10 14:35:58;;;;;;;7.7;4.8;;;;;;;19.38;22.28809;953.5865;;;;
2023/02/10 14:38:23;;;;;;;7;4.5;;;;;;;18.73;22.88379;953.6308;;;;
2023/02/10 14:40:48;;;;;;;6.7;4.5;;;;;;;18.41;23.35547;953.6619;;;;
2023/02/10 14:43:13;;;;;;;7.2;5;;;;;;;18.57;23.20117;953.6733;;;;
2023/02/10 14:45:40;;;;;;;6.4;4.3;;;;;;;18.41;23.43652;953.6933;;;;
2023/02/10 14:48:04;;;;;;;6.7;4.9;;;;;;;18.31;23.62891;953.6776;;;;
2023/02/10 14:50:30;;;;;;;6.9;4.7;;;;;;;18.92;23.0791;953.6912;;;;
2023/02/10 14:52:57;;;;;;;7.2;5.3;;;;;;;19.04;22.91113;953.6166;;;;
2023/02/10 14:55:23;;;;;;;7.2;5;;;;;;;19.55;22.39063;953.6856;;;;
2023/02/10 14:57:48;;;;;;;9.5;6.2;;;;;;;19.25;22.72461;953.668;;;;
2023/02/10 15:00:20;;;;;;;8.7;5.5;;;;;;;18.33;23.51367;953.722;;;;
2023/02/10 15:02:50;;;;;;;10.8;7;;;;;;;17.88;24.15137;953.7022;;;;
2023/02/10 15:05:19;;;;;;;13.9;8.1;;;;;;;17.12;25.22266;953.7714;;;;
2023/02/10 15:07:44;;;;;;;8.3;5.5;;;;;;;17.43;24.91602;953.7393;;;;
2023/02/10 15:10:16;;;;;;;8;5.2;;;;;;;17.88;24.38379;953.7231;;;;
2023/02/10 15:12:43;;;;;;;7.9;5.2;;;;;;;17.72;24.36328;953.7339;;;;
2023/02/10 15:15:09;;;;;;;8.7;4.8;;;;;;;18.05;24.19629;953.731;;;;
2023/02/10 15:17:35;;;;;;;6.5;4.6;;;;;;;17.66;24.49902;953.8;;;;
2023/02/10 15:20:04;;;;;;;6.1;4.5;;;;;;;17.39;24.90137;953.8297;;;;
2023/02/10 15:22:31;;;;;;;7.2;5.2;;;;;;;16.23;25.98145;953.8914;;;;
2023/02/10 15:24:56;;;;;;;7.5;4.7;;;;;;;15.74;26.42578;953.8574;;;;
2023/02/10 15:27:22;;;;;;;9.4;4.8;;;;;;;14.4;28.17676;953.9037;;;;
2023/02/10 15:29:49;;;;;;;8.6;5.1;;;;;;;12.61;30.7334;954.0285;;;;
2023/02/10 15:32:17;;;;;;;11;5.4;;;;;;;10.1;34.99414;954.0655;;;;
2023/02/10 15:34:42;;;;;;;9.9;5.4;;;;;;;8.57;38.34766;954.1161;;;;
2023/02/10 15:37:09;;;;;;;8.9;5.5;;;;;;;8.45;38.84766;954.2017;;;;
2023/02/10 15:39:36;;;;;;;8.7;5.6;;;;;;;7.5;41.04102;954.162;;;;
2023/02/10 15:42:02;;;;;;;11.8;6.1;;;;;;;7.19;42.12207;954.1431;;;;
2023/02/10 15:44:28;;;;;;;11.7;7;;;;;;;6.84;43.03906;954.2849;;;;
2023/02/10 15:46:52;;;;;;;11.5;6.3;;;;;;;6.51;43.79688;954.2894;;;;
2023/02/10 15:49:20;;;;;;;10.3;7.2;;;;;;;6.23;44.85352;954.2843;;;;
2023/02/10 15:51:46;;;;;;;10;6.5;;;;;;;5.89;45.7666;954.3312;;;;
2023/02/10 15:54:10;;;;;;;9.7;6;;;;;;;5.94;45.8291;954.3423;;;;
2023/02/10 15:56:37;;;;;;;10.9;7.9;;;;;;;5.55;47.12891;954.3661;;;;
2023/02/10 15:59:03;;;;;;;13.8;8.3;;;;;;;5.65;47.0166;954.3153;;;;
2023/02/10 16:01:34;;;;;;;13.3;7.8;;;;;;;5.63;47.42188;954.4067;;;;
2023/02/10 16:04:03;;;;;;;13.9;8.6;;;;;;;5.49;47.82227;954.4411;;;;
2023/02/10 16:06:29;;;;;;;12.5;7.8;;;;;;;5.34;48.23438;954.5187;;;;
2023/02/10 16:08:59;;;;;;;13.6;9;;;;;;;5.14;49.05859;954.4919;;;;
2023/02/10 16:11:30;;;;;;;16.5;8.5;;;;;;;5.07;49.08398;954.5449;;;;
2023/02/10 16:14:00;;;;;;;14.5;8.2;;;;;;;5;49.53809;954.5339;;;;